createdAt,value
2022-11-10T00:01:06.577Z,5.81
2022-11-10T00:03:52.678Z,5.97
2022-11-10T00:06:38.279Z,5.93
2022-11-10T00:09:24.359Z,5.80
2022-11-10T00:12:10.239Z,5.66
2022-11-10T00:15:14.445Z,5.76
2022-11-10T00:18:04.423Z,5.80
2022-11-10T00:20:50.103Z,5.74
2022-11-10T00:23:36.635Z,5.76
2022-11-10T00:26:22.526Z,5.80
2022-11-10T00:29:08.540Z,5.63
2022-11-10T00:31:54.077Z,5.80
2022-11-10T00:34:40.008Z,5.73
2022-11-10T00:37:26.143Z,5.55
2022-11-10T00:40:11.959Z,5.57
2022-11-10T00:42:57.805Z,5.49
2022-11-10T00:45:44.589Z,5.52
2022-11-10T00:48:30.510Z,5.67
2022-11-10T00:51:28.078Z,5.65
2022-11-10T00:54:14.038Z,5.79
2022-11-10T00:57:01.618Z,5.49
2022-11-10T00:59:47.374Z,5.45
2022-11-10T01:02:33.162Z,5.48
2022-11-10T01:05:19.052Z,5.54
2022-11-10T01:08:05.084Z,5.45
2022-11-10T01:10:50.992Z,5.36
2022-11-10T01:13:37.350Z,5.44
2022-11-10T01:16:28.828Z,5.17
2022-11-10T01:19:14.503Z,5.20
2022-11-10T01:22:01.236Z,4.96
2022-11-10T01:24:46.946Z,4.96
2022-11-10T01:27:32.995Z,5.07
2022-11-10T01:30:19.877Z,5.20
2022-11-10T01:33:05.418Z,5.15
2022-11-10T01:35:51.222Z,5.21
2022-11-10T01:38:40.100Z,5.24
2022-11-10T01:41:25.683Z,5.15
2022-11-10T01:44:19.855Z,5.11
2022-11-10T01:47:05.823Z,5.10
2022-11-10T01:49:51.700Z,4.86
2022-11-10T01:52:37.400Z,4.91
2022-11-10T01:55:24.782Z,4.87
2022-11-10T01:58:15.308Z,4.74
2022-11-10T02:01:00.996Z,4.63
2022-11-10T02:04:08.546Z,4.66
2022-11-10T02:06:55.123Z,4.56
2022-11-10T02:09:40.934Z,4.44
2022-11-10T02:12:52.897Z,4.42
2022-11-10T02:15:39.341Z,4.54
2022-11-10T02:18:24.663Z,4.73
2022-11-10T02:21:11.337Z,4.68
2022-11-10T02:23:56.837Z,4.21
2022-11-10T02:26:48.822Z,4.39
2022-11-10T02:29:34.662Z,4.37
2022-11-10T02:32:20.511Z,4.31
2022-11-10T02:35:06.786Z,4.41
2022-11-10T02:37:52.546Z,4.51
2022-11-10T02:40:38.462Z,4.50
2022-11-10T02:43:24.434Z,4.45
2022-11-10T02:46:10.248Z,4.40
2022-11-10T02:48:55.937Z,4.29
2022-11-10T02:51:41.813Z,4.17
2022-11-10T02:54:27.449Z,4.27
2022-11-10T02:57:13.092Z,4.41
2022-11-10T02:59:59.065Z,4.61
2022-11-10T03:02:45.219Z,4.64
2022-11-10T03:05:31.718Z,4.36
2022-11-10T03:08:18.111Z,4.57
2022-11-10T03:11:04.104Z,4.59
2022-11-10T03:14:01.457Z,4.53
2022-11-10T03:16:47.873Z,4.76
2022-11-10T03:19:33.444Z,4.76
2022-11-10T03:22:19.461Z,4.77
2022-11-10T03:25:05.843Z,4.80
2022-11-10T03:27:51.727Z,4.47
2022-11-10T03:30:38.431Z,4.57
2022-11-10T03:33:24.591Z,4.67
2022-11-10T03:36:10.796Z,4.62
2022-11-10T03:38:57.215Z,4.79
2022-11-10T03:41:43.232Z,4.88
2022-11-10T03:44:29.278Z,4.92
2022-11-10T03:47:15.290Z,4.96
2022-11-10T03:50:01.308Z,5.23
2022-11-10T03:52:48.595Z,5.10
2022-11-10T03:55:34.515Z,4.92
2022-11-10T03:58:20.442Z,5.30
2022-11-10T04:01:07.335Z,5.43
2022-11-10T04:03:53.117Z,5.45
2022-11-10T04:06:57.615Z,5.53
2022-11-10T04:09:43.662Z,5.41
2022-11-10T04:12:48.270Z,5.53
2022-11-10T04:15:42.867Z,5.65
2022-11-10T04:18:29.920Z,5.82
2022-11-10T04:21:15.979Z,5.92
2022-11-10T04:24:02.051Z,5.85
2022-11-10T04:26:49.145Z,5.89
2022-11-10T04:29:34.997Z,5.86
2022-11-10T04:32:21.209Z,5.81
2022-11-10T04:35:07.292Z,5.81
2022-11-10T04:37:53.157Z,5.78
2022-11-10T04:40:38.859Z,5.81
2022-11-10T04:43:25.064Z,5.83
2022-11-10T04:46:25.102Z,5.88
2022-11-10T04:49:11.406Z,5.57
2022-11-10T04:51:57.603Z,5.59
2022-11-10T04:54:43.710Z,5.69
2022-11-10T04:57:29.643Z,5.70
2022-11-10T05:00:16.281Z,5.76
2022-11-10T05:03:04.647Z,5.79
2022-11-10T05:05:50.334Z,5.69
2022-11-10T05:26:02.660Z,5.25
2022-11-10T05:28:48.560Z,5.25
2022-11-10T05:31:34.426Z,4.89
2022-11-10T05:34:20.358Z,5.10
2022-11-10T05:37:05.957Z,5.27
2022-11-10T05:39:51.905Z,5.36
2022-11-10T05:42:49.019Z,5.21
2022-11-10T05:45:34.956Z,5.36
2022-11-10T05:48:20.757Z,5.59
2022-11-10T05:51:06.736Z,5.45
2022-11-10T05:53:52.618Z,5.66
2022-11-10T05:56:38.266Z,5.62
2022-11-10T05:59:24.646Z,5.69
2022-11-10T06:02:10.679Z,5.76
2022-11-10T06:04:56.752Z,5.92
2022-11-10T06:09:24.435Z,6.15
2022-11-10T06:12:10.222Z,6.15
2022-11-10T06:14:58.161Z,5.71
2022-11-10T06:17:44.516Z,5.79
2022-11-10T06:20:30.415Z,5.70
2022-11-10T06:23:16.553Z,5.49
2022-11-10T06:26:02.587Z,5.67
2022-11-10T06:28:48.551Z,5.80
2022-11-10T06:31:34.840Z,5.76
2022-11-10T06:34:20.674Z,5.78
2022-11-10T06:37:06.706Z,5.67
2022-11-10T06:39:52.842Z,5.78
2022-11-10T06:42:39.114Z,5.57
2022-11-10T06:45:28.624Z,5.95
2022-11-10T06:48:14.716Z,5.86
2022-11-10T06:51:01.861Z,6.09
2022-11-10T06:53:47.952Z,6.28
2022-11-10T06:56:35.015Z,6.50
2022-11-10T06:59:21.232Z,6.60
2022-11-10T07:02:10.202Z,6.66
2022-11-10T07:04:56.440Z,6.74
2022-11-10T07:09:24.577Z,7.16
2022-11-10T07:12:10.228Z,7.16
2022-11-10T07:14:56.140Z,6.82
2022-11-10T07:17:42.036Z,6.44
2022-11-10T07:20:28.660Z,6.16
2022-11-10T07:23:14.532Z,5.81
2022-11-10T07:26:00.602Z,6.02
2022-11-10T07:28:46.432Z,6.22
2022-11-10T07:31:32.377Z,6.37
2022-11-10T07:34:18.822Z,6.65
2022-11-10T07:37:05.022Z,6.49
2022-11-10T07:39:50.955Z,6.55
2022-11-10T07:42:40.339Z,6.64
2022-11-10T07:45:26.727Z,6.58
2022-11-10T07:48:12.783Z,6.75
2022-11-10T07:50:58.641Z,6.84
2022-11-10T07:53:44.816Z,6.84
2022-11-10T07:56:30.685Z,6.99
2022-11-10T07:59:16.351Z,7.08
2022-11-10T08:02:02.294Z,7.11
2022-11-10T08:04:48.005Z,7.22
2022-11-10T08:07:33.912Z,7.16
2022-11-10T08:10:19.958Z,7.14
2022-11-10T08:13:07.756Z,7.33
2022-11-10T08:15:53.533Z,7.42
2022-11-10T08:18:39.556Z,7.26
2022-11-10T08:21:25.574Z,7.15
2022-11-10T08:24:11.716Z,7.21
2022-11-10T08:26:57.748Z,7.16
2022-11-10T08:29:43.500Z,7.14
2022-11-10T08:32:29.505Z,7.33
2022-11-10T08:35:15.540Z,7.31
2022-11-10T08:38:28.086Z,7.55
2022-11-10T08:41:16.032Z,7.45
2022-11-10T08:44:02.163Z,7.76
2022-11-10T08:46:48.193Z,7.94
2022-11-10T08:49:33.871Z,7.98
2022-11-10T08:52:19.880Z,8.08
2022-11-10T08:55:06.100Z,8.00
2022-11-10T08:57:52.230Z,8.30
2022-11-10T09:00:37.962Z,8.11
2022-11-10T09:03:25.983Z,8.55
2022-11-10T09:06:12.222Z,8.85
2022-11-10T09:08:58.255Z,9.39
2022-11-10T09:11:43.814Z,9.63
2022-11-10T09:14:29.802Z,10.00
2022-11-10T09:17:15.877Z,10.38
2022-11-10T09:20:01.919Z,10.08
2022-11-10T09:22:48.039Z,10.29
2022-11-10T09:25:34.419Z,10.53
2022-11-10T09:28:22.026Z,10.89
2022-11-10T09:31:08.027Z,11.17
2022-11-10T09:33:53.848Z,11.39
2022-11-10T09:36:40.541Z,11.42
2022-11-10T09:39:26.515Z,11.18
2022-11-10T09:42:40.649Z,11.35
2022-11-10T09:45:39.190Z,11.73
2022-11-10T09:48:30.137Z,11.85
2022-11-10T09:51:36.530Z,12.13
2022-11-10T09:54:37.534Z,12.39
2022-11-10T09:57:26.116Z,13.13
2022-11-10T10:00:17.548Z,13.23
2022-11-10T10:03:05.667Z,13.37
2022-11-10T10:06:03.014Z,13.56
2022-11-10T10:09:12.054Z,13.61
2022-11-10T10:12:33.037Z,13.85
2022-11-10T10:15:27.099Z,13.91
2022-11-10T10:18:22.513Z,14.32
2022-11-10T10:21:36.488Z,14.95
2022-11-10T10:24:27.733Z,15.28
2022-11-10T10:27:23.163Z,15.32
2022-11-10T10:30:17.858Z,15.84
2022-11-10T10:33:15.187Z,16.47
2022-11-10T10:36:08.314Z,16.56
2022-11-10T10:39:03.297Z,16.80
2022-11-10T10:41:49.172Z,16.91
2022-11-10T10:44:35.281Z,16.40
2022-11-10T10:47:36.968Z,16.78
2022-11-10T10:50:27.055Z,16.16
2022-11-10T10:53:14.233Z,16.02
2022-11-10T10:56:23.190Z,15.76
2022-11-10T10:59:22.497Z,15.46
2022-11-10T11:02:31.151Z,15.50
2022-11-10T11:05:18.301Z,15.19
2022-11-10T11:08:04.510Z,15.15
2022-11-10T11:10:50.641Z,15.45
2022-11-10T11:13:36.872Z,15.50
2022-11-10T11:16:22.632Z,15.39
2022-11-10T11:19:09.305Z,15.44
2022-11-10T11:22:01.304Z,15.61
2022-11-10T11:25:24.540Z,15.55
2022-11-10T11:28:49.697Z,15.80
2022-11-10T11:31:43.064Z,15.75
2022-11-10T11:35:00.257Z,16.11
2022-11-10T11:38:13.411Z,16.87
2022-11-10T11:41:21.172Z,16.72
2022-11-10T11:44:27.444Z,16.81
2022-11-10T11:47:55.349Z,16.67
2022-11-10T11:50:53.714Z,17.03
2022-11-10T11:53:59.895Z,16.86
2022-11-10T11:56:49.797Z,16.84
2022-11-10T12:00:17.556Z,17.04
2022-11-10T12:03:17.447Z,17.51
2022-11-10T12:06:27.241Z,17.72
2022-11-10T12:09:18.780Z,17.62
2022-11-10T12:12:13.770Z,17.56
2022-11-10T12:15:14.977Z,17.86
2022-11-10T12:18:13.632Z,18.08
2022-11-10T12:21:18.364Z,18.02
2022-11-10T12:24:33.201Z,17.63
2022-11-10T12:27:32.519Z,18.10
2022-11-10T12:30:18.971Z,18.79
2022-11-10T12:33:23.859Z,19.08
2022-11-10T12:36:13.825Z,19.05
2022-11-10T12:39:13.800Z,18.87
2022-11-10T12:42:03.855Z,19.30
2022-11-10T12:44:49.698Z,19.60
2022-11-10T12:47:44.105Z,19.68
2022-11-10T12:50:41.042Z,19.91
2022-11-10T12:53:31.736Z,19.96
2022-11-10T12:56:37.837Z,19.76
2022-11-10T12:59:31.740Z,20.10
2022-11-10T13:02:26.297Z,20.33
2022-11-10T13:05:14.904Z,20.73
2022-11-10T13:08:12.893Z,20.89
2022-11-10T13:11:04.503Z,20.90
2022-11-10T13:14:01.976Z,21.37
2022-11-10T13:16:55.816Z,21.87
2022-11-10T13:19:41.763Z,22.28
2022-11-10T13:22:30.495Z,22.39
2022-11-10T13:25:38.476Z,22.78
2022-11-10T13:28:49.129Z,23.27
2022-11-10T13:31:39.935Z,24.04
2022-11-10T13:34:39.617Z,24.89
2022-11-10T13:37:34.570Z,25.11
2022-11-10T13:40:23.666Z,25.95
2022-11-10T13:43:22.837Z,26.52
2022-11-10T13:46:09.308Z,27.14
2022-11-10T13:49:27.266Z,26.86
2022-11-10T13:52:56.870Z,27.22
2022-11-10T13:56:04.696Z,27.22
2022-11-10T13:58:50.585Z,25.71
2022-11-10T14:01:36.480Z,23.86
2022-11-10T14:04:45.301Z,22.47
2022-11-10T14:09:45.769Z,20.14
2022-11-10T14:12:41.058Z,20.14
2022-11-10T14:15:54.299Z,18.94
2022-11-10T14:19:01.667Z,18.40
2022-11-10T14:21:59.437Z,17.88
2022-11-10T14:25:20.977Z,17.57
2022-11-10T14:28:33.754Z,17.00
2022-11-10T14:31:25.583Z,16.65
2022-11-10T14:34:18.742Z,16.14
2022-11-10T14:37:05.265Z,15.91
2022-11-10T14:39:55.037Z,15.62
2022-11-10T14:42:41.527Z,15.46
2022-11-10T14:45:28.688Z,15.06
2022-11-10T14:48:21.003Z,14.89
2022-11-10T14:51:19.263Z,14.66
2022-11-10T14:54:04.853Z,14.85
2022-11-10T14:56:51.417Z,14.79
2022-11-10T14:59:37.976Z,14.62
2022-11-10T15:02:23.938Z,14.46
2022-11-10T15:05:16.573Z,14.22
2022-11-10T15:08:04.332Z,13.99
2022-11-10T15:10:53.402Z,13.96
2022-11-10T15:13:40.025Z,13.93
2022-11-10T15:16:37.210Z,13.72
2022-11-10T15:19:32.195Z,13.69
2022-11-10T15:22:19.277Z,13.49
2022-11-10T15:25:15.391Z,13.33
2022-11-10T15:28:17.209Z,13.17
2022-11-10T15:31:05.627Z,13.07
2022-11-10T15:33:54.803Z,12.82
2022-11-10T15:36:40.487Z,12.65
2022-11-10T15:39:27.477Z,12.59
2022-11-10T15:42:16.936Z,12.35
2022-11-10T15:45:02.309Z,12.26
2022-11-10T15:47:48.189Z,12.29
2022-11-10T15:50:34.234Z,12.20
2022-11-10T15:53:37.987Z,12.03
2022-11-10T15:56:26.111Z,11.92
2022-11-10T15:59:11.703Z,11.73
2022-11-10T16:01:57.867Z,11.64
2022-11-10T16:04:43.917Z,11.54
2022-11-10T16:07:29.731Z,11.41
2022-11-10T16:10:15.962Z,11.40
2022-11-10T16:13:02.074Z,11.25
2022-11-10T16:15:48.229Z,11.31
2022-11-10T16:18:34.078Z,11.28
2022-11-10T16:21:22.344Z,11.17
2022-11-10T16:24:08.198Z,11.24
2022-11-10T16:26:54.290Z,11.17
2022-11-10T16:29:41.495Z,11.01
2022-11-10T16:32:27.033Z,10.71
2022-11-10T16:35:14.476Z,10.85
2022-11-10T16:38:00.035Z,10.62
2022-11-10T16:41:07.751Z,10.53
2022-11-10T16:43:53.500Z,10.20
2022-11-10T16:46:42.645Z,10.26
2022-11-10T16:49:31.864Z,10.16
2022-11-10T16:52:19.156Z,10.07
2022-11-10T16:55:05.042Z,9.94
2022-11-10T16:57:51.131Z,9.75
2022-11-10T17:00:37.825Z,9.77
2022-11-10T17:03:33.672Z,9.65
2022-11-10T17:06:21.726Z,9.41
2022-11-10T17:09:14.934Z,9.44
2022-11-10T17:12:00.464Z,9.59
2022-11-10T17:14:46.190Z,9.61
2022-11-10T17:17:31.877Z,9.34
2022-11-10T17:20:39.108Z,9.22
2022-11-10T17:23:26.403Z,9.07
2022-11-10T17:26:15.655Z,8.86
2022-11-10T17:29:01.550Z,8.76
2022-11-10T17:31:47.539Z,8.81
2022-11-10T17:34:33.347Z,8.76
2022-11-10T17:37:19.459Z,8.59
2022-11-10T17:40:26.865Z,8.78
2022-11-10T17:43:14.134Z,8.68
2022-11-10T17:46:00.138Z,8.37
2022-11-10T17:48:47.805Z,8.52
2022-11-10T17:51:34.937Z,8.49
2022-11-10T17:54:20.911Z,8.27
2022-11-10T17:57:10.079Z,8.14
2022-11-10T17:59:56.248Z,8.15
2022-11-10T18:02:43.449Z,8.20
2022-11-10T18:05:29.713Z,8.16
2022-11-10T18:08:17.273Z,8.19
2022-11-10T18:11:03.339Z,7.84
2022-11-10T18:13:49.119Z,7.94
2022-11-10T18:16:35.076Z,7.81
2022-11-10T18:19:20.808Z,7.43
2022-11-10T18:22:07.573Z,7.29
2022-11-10T18:24:53.334Z,7.49
2022-11-10T18:27:39.187Z,7.62
2022-11-10T18:30:25.343Z,7.70
2022-11-10T18:33:12.520Z,7.66
2022-11-10T18:36:01.203Z,7.59
2022-11-10T18:38:47.424Z,7.58
2022-11-10T18:41:52.628Z,7.63
2022-11-10T18:44:39.085Z,7.43
2022-11-10T18:47:24.699Z,7.43
2022-11-10T18:50:10.748Z,7.26
2022-11-10T18:52:56.509Z,7.37
2022-11-10T18:55:45.539Z,7.17
2022-11-10T18:58:31.329Z,7.33
2022-11-10T19:01:16.920Z,7.14
2022-11-10T19:04:02.731Z,7.06
2022-11-10T19:06:48.588Z,7.16
2022-11-10T19:09:34.561Z,7.19
2022-11-10T19:12:26.297Z,6.70
2022-11-10T19:15:12.466Z,6.70
2022-11-10T19:17:58.140Z,6.85
2022-11-10T19:20:43.918Z,6.75
2022-11-10T19:23:29.865Z,6.61
2022-11-10T19:26:22.612Z,6.68
2022-11-10T19:29:09.285Z,6.64
2022-11-10T19:31:55.219Z,6.42
2022-11-10T19:34:41.255Z,6.36
2022-11-10T19:37:29.795Z,6.46
2022-11-10T19:40:19.255Z,6.68
2022-11-10T19:43:04.839Z,6.57
2022-11-10T19:45:51.103Z,6.51
2022-11-10T19:48:36.889Z,6.56
2022-11-10T19:51:24.484Z,6.50
2022-11-10T19:54:13.497Z,6.43
2022-11-10T19:56:59.547Z,6.40
2022-11-10T19:59:45.565Z,6.41
2022-11-10T20:02:31.454Z,6.45
2022-11-10T20:05:17.537Z,6.10
2022-11-10T20:08:11.491Z,6.06
2022-11-10T20:11:03.429Z,6.18
2022-11-10T20:13:54.781Z,6.06
2022-11-10T20:16:41.118Z,6.02
2022-11-10T20:19:27.292Z,6.15
2022-11-10T20:22:13.780Z,5.97
2022-11-10T20:24:59.760Z,5.57
2022-11-10T20:27:47.799Z,5.19
2022-11-10T20:30:36.026Z,5.35
2022-11-10T20:33:21.977Z,5.40
2022-11-10T20:36:15.993Z,5.55
2022-11-10T20:39:04.654Z,5.60
2022-11-10T20:41:52.776Z,5.70
2022-11-10T20:44:38.446Z,5.60
2022-11-10T20:47:25.152Z,5.64
2022-11-10T20:50:14.897Z,5.65
2022-11-10T20:53:05.934Z,5.50
2022-11-10T20:56:01.075Z,5.45
2022-11-10T20:58:47.095Z,5.36
2022-11-10T21:01:33.785Z,5.45
2022-11-10T21:04:19.803Z,5.48
2022-11-10T21:07:05.839Z,5.55
2022-11-10T21:09:51.683Z,5.32
2022-11-10T21:12:49.786Z,5.36
2022-11-10T21:15:39.508Z,5.10
2022-11-10T21:18:28.006Z,4.78
2022-11-10T21:21:23.323Z,4.91
2022-11-10T21:24:10.355Z,4.95
2022-11-10T21:26:57.526Z,5.26
2022-11-10T21:29:43.710Z,5.29
2022-11-10T21:32:29.921Z,5.25
2022-11-10T21:35:16.553Z,5.14
2022-11-10T21:38:02.059Z,5.04
2022-11-10T21:40:48.087Z,5.02
2022-11-10T21:43:34.164Z,4.98
2022-11-10T21:46:21.087Z,4.93
2022-11-10T21:49:08.008Z,4.94
2022-11-10T21:51:54.078Z,4.85
2022-11-10T21:54:40.244Z,4.88
2022-11-10T21:57:25.947Z,4.81
2022-11-10T22:00:13.539Z,4.72
2022-11-10T22:03:01.031Z,4.54
2022-11-10T22:05:46.678Z,4.73
2022-11-10T22:08:32.832Z,4.83
2022-11-10T22:11:39.130Z,4.73
2022-11-10T22:14:43.599Z,4.71
2022-11-10T22:17:48.468Z,4.68
2022-11-10T22:20:34.438Z,4.75
2022-11-10T22:23:39.722Z,4.71
2022-11-10T22:26:25.456Z,4.59
2022-11-10T22:29:11.197Z,4.64
2022-11-10T22:31:57.898Z,4.62
2022-11-10T22:34:43.948Z,4.62
2022-11-10T22:37:33.239Z,4.68
2022-11-10T22:40:37.379Z,4.67
2022-11-10T22:43:42.014Z,4.66
2022-11-10T22:46:28.237Z,4.62
2022-11-10T22:49:16.107Z,4.78
2022-11-10T22:52:01.865Z,4.41
2022-11-10T22:54:47.813Z,4.07
2022-11-10T22:57:33.353Z,4.06
2022-11-10T23:00:18.878Z,4.22
2022-11-10T23:03:04.736Z,4.46
2022-11-10T23:05:56.317Z,4.43
2022-11-10T23:08:43.542Z,4.38
2022-11-10T23:11:32.265Z,4.32
2022-11-10T23:14:18.180Z,4.22
2022-11-10T23:17:03.967Z,4.03
2022-11-10T23:19:51.192Z,4.22
2022-11-10T23:22:36.818Z,4.16
2022-11-10T23:25:22.806Z,3.89
2022-11-10T23:28:08.554Z,3.73
2022-11-10T23:30:54.750Z,3.78
2022-11-10T23:33:42.289Z,3.89
2022-11-10T23:36:28.089Z,3.72
2022-11-10T23:39:14.109Z,3.73
2022-11-10T23:41:59.972Z,3.94
2022-11-10T23:44:46.046Z,4.00
2022-11-10T23:47:31.677Z,3.82
2022-11-10T23:50:18.421Z,4.06
2022-11-10T23:53:03.946Z,4.08
2022-11-10T23:56:00.432Z,4.05
2022-11-10T23:58:46.328Z,3.65
